PWSweather.com
Personal Weather Stations
Station Observations
INORDPAS37
Bondues, BonduesFR 59910

BonduesBonduesFR 59910

Lat: 50.7, Lon: 3.09

Elevation: 66

Station Type: NetAtmo

Latest ConditionsUpdated 6:15:00 PM GMT+01:01 Saturday, Oct 21, 2017
Currently Today's Max Today's Min Today's Average
Temperature 56.5°F13.6°C 62.6°F17.0°C 51.8°F11.0°C 57.1°F13.9°C
Dew Point 40.5°F4.7°C 47.8°F8.8°C 38.1°F3.4°C 42.6°F5.9°C
Winds 4.3 mph SW6.9 kmh SW 9.4 mph SW15.1 kmh SW - 4.9 mph 7.9 kmh
Wind Gusts 9.8 mph15.8 kmh 19.9 mph32.0 kmh - -
Humidity 59% 71% 51% 63%
Pressure 29.81 in1009.5 mb 29.88 in1011.9 mb 29.78 in1008.5 mb -
Precipitation - 0.08 in2.0 mm - -
Hour Temp Dew Point Humidity Winds Wind Gusts Pressure Precip Precip Rate Daily Precip Total
06:15 PM 56.5°F13.6°C 40.5°F4.7°C 59% 4.3 mph SW6.9 kmh SW 9.8 mph15.8 kmh 29.81 in1009.5 mb 0.00 in0.0 mm 0.00 in0.0 mm 0.08 in2.0 mm
05:55 PM 55.6°F13.1°C 39.9°F4.4°C 60% 4.3 mph SW6.9 kmh SW 9.4 mph15.1 kmh 29.81 in1009.5 mb 0.00 in0.0 mm 0.00 in0.0 mm 0.08 in2.0 mm
05:51 PM 54.0°F12.2°C 38.5°F3.6°C 60% 4.3 mph SW6.9 kmh SW -- 29.80 in1009.1 mb 0.00 in0.0 mm 0.00 in0.0 mm 0.08 in2.0 mm
05:35 PM 54.0°F12.2°C 38.5°F3.6°C 60% 4.3 mph SW6.9 kmh SW 10.5 mph16.9 kmh 29.80 in1009.1 mb 0.00 in0.0 mm 0.00 in0.0 mm 0.08 in2.0 mm
05:14 PM 54.1°F12.3°C 38.1°F3.4°C 59% 1.8 mph SW2.9 kmh SW 5.6 mph9.0 kmh 29.81 in1009.5 mb 0.02 in0.5 mm 0.00 in0.0 mm 0.08 in2.0 mm
04:55 PM 54.7°F12.6°C 38.3°F3.5°C 58% 2.5 mph SW4.0 kmh SW 6.9 mph11.1 kmh 29.81 in1009.5 mb 0.02 in0.5 mm 0.00 in0.0 mm 0.08 in2.0 mm
04:51 PM 56.8°F13.8°C 39.6°F4.2°C 56% 3.7 mph W6.0 kmh W -- 29.82 in1009.8 mb 0.02 in0.5 mm 0.00 in0.0 mm 0.08 in2.0 mm
04:34 PM 56.8°F13.8°C 39.6°F4.2°C 56% 3.8 mph W6.1 kmh W 8.1 mph13.0 kmh 29.82 in1009.8 mb 0.02 in0.5 mm 0.06 in1.5 mm 0.08 in2.0 mm
04:19 PM 60.8°F16.0°C 41.7°F5.4°C 52% 6.9 mph WSW11.1 kmh WSW 15.4 mph24.8 kmh 29.82 in1009.8 mb 0.00 in0.0 mm 0.00 in0.0 mm 0.06 in1.5 mm
03:58 PM 61.9°F16.6°C 42.3°F5.7°C 51% 8.1 mph SW13.0 kmh SW 19.9 mph32.0 kmh 29.81 in1009.5 mb 0.00 in0.0 mm 0.00 in0.0 mm 0.06 in1.5 mm
03:39 PM 62.6°F17.0°C 43.3°F6.3°C 52% 8.1 mph SW13.0 kmh SW -- 29.80 in1009.1 mb 0.00 in0.0 mm 0.00 in0.0 mm 0.06 in1.5 mm
03:21 PM 62.4°F16.9°C 43.2°F6.2°C 52% 9.4 mph SW15.1 kmh SW 18.6 mph29.9 kmh 29.80 in1009.1 mb 0.00 in0.0 mm 0.00 in0.0 mm 0.06 in1.5 mm
03:01 PM 62.4°F16.9°C 43.2°F6.2°C 52% 7.4 mph SW11.9 kmh SW 15.0 mph24.1 kmh 29.80 in1009.1 mb 0.00 in0.0 mm 0.00 in0.0 mm 0.06 in1.5 mm
02:41 PM 62.6°F17.0°C 43.3°F6.3°C 52% 7.5 mph SW12.1 kmh SW -- 29.80 in1009.1 mb 0.00 in0.0 mm 0.00 in0.0 mm 0.06 in1.5 mm
02:20 PM 62.4°F16.9°C 43.2°F6.2°C 52% 8.7 mph SW14.0 kmh SW 16.8 mph27.0 kmh 29.80 in1009.1 mb 0.00 in0.0 mm 0.00 in0.0 mm 0.06 in1.5 mm
02:02 PM 62.4°F16.9°C 44.4°F6.9°C 55% 8.1 mph SW13.0 kmh SW 19.9 mph32.0 kmh 29.80 in1009.1 mb 0.00 in0.0 mm 0.00 in0.0 mm 0.06 in1.5 mm
01:42 PM 61.9°F16.6°C 44.6°F7.0°C 57% 5.6 mph SW9.0 kmh SW -- 29.81 in1009.5 mb 0.00 in0.0 mm 0.00 in0.0 mm 0.06 in1.5 mm
01:22 PM 61.7°F16.5°C 44.4°F6.9°C 57% 4.9 mph SW7.9 kmh SW 11.9 mph19.2 kmh 29.81 in1009.5 mb 0.00 in0.0 mm 0.00 in0.0 mm 0.06 in1.5 mm
01:02 PM 61.7°F16.5°C 45.0°F7.2°C 58% 6.9 mph SW11.1 kmh SW 15.4 mph24.8 kmh 29.82 in1009.8 mb 0.00 in0.0 mm 0.00 in0.0 mm 0.06 in1.5 mm
12:42 PM 61.2°F16.2°C 44.4°F6.9°C 58% 5.6 mph SW9.0 kmh SW -- 29.83 in1010.2 mb 0.00 in0.0 mm 0.00 in0.0 mm 0.06 in1.5 mm
12:21 PM 61.5°F16.4°C 44.8°F7.1°C 58% 7.4 mph SW11.9 kmh SW 16.1 mph25.9 kmh 29.83 in1010.2 mb 0.00 in0.0 mm 0.00 in0.0 mm 0.06 in1.5 mm
12:01 PM 61.3°F16.3°C 45.0°F7.2°C 59% 7.4 mph WSW11.9 kmh WSW 15.4 mph24.8 kmh 29.83 in1010.2 mb 0.00 in0.0 mm 0.00 in0.0 mm 0.06 in1.5 mm
11:51 AM 61.7°F16.5°C 46.0°F7.8°C 61% 7.5 mph SW12.1 kmh SW -- 29.83 in1010.2 mb 0.00 in0.0 mm 0.00 in0.0 mm 0.06 in1.5 mm
11:34 AM 61.7°F16.5°C 46.0°F7.8°C 61% 7.4 mph SW11.9 kmh SW 17.4 mph28.0 kmh 29.83 in1010.2 mb 0.00 in0.0 mm 0.00 in0.0 mm 0.06 in1.5 mm
11:15 AM 61.3°F16.3°C 46.6°F8.1°C 63% 6.9 mph SW11.1 kmh SW 16.1 mph25.9 kmh 29.83 in1010.2 mb 0.00 in0.0 mm 0.00 in0.0 mm 0.06 in1.5 mm
10:54 AM 61.0°F16.1°C 47.1°F8.4°C 65% 7.4 mph SW11.9 kmh SW 15.0 mph24.1 kmh 29.83 in1010.2 mb 0.00 in0.0 mm 0.00 in0.0 mm 0.06 in1.5 mm
10:51 AM 60.8°F16.0°C 47.7°F8.7°C 67% 5.6 mph SW9.0 kmh SW -- 29.83 in1010.2 mb 0.00 in0.0 mm 0.00 in0.0 mm 0.06 in1.5 mm
10:35 AM 60.8°F16.0°C 47.7°F8.7°C 67% 5.6 mph SW9.0 kmh SW 13.6 mph21.9 kmh 29.83 in1010.2 mb 0.00 in0.0 mm 0.00 in0.0 mm 0.06 in1.5 mm
10:14 AM 60.4°F15.8°C 47.3°F8.5°C 67% 5.6 mph SW9.0 kmh SW 13.6 mph21.9 kmh 29.82 in1009.8 mb 0.00 in0.0 mm 0.01 in0.3 mm 0.06 in1.5 mm
09:54 AM 59.7°F15.4°C 47.8°F8.8°C 70% 4.9 mph SW7.9 kmh SW 11.2 mph18.0 kmh 29.83 in1010.2 mb 0.00 in0.0 mm 0.00 in0.0 mm 0.06 in1.5 mm
09:51 AM 58.8°F14.9°C 47.5°F8.6°C 71% 3.7 mph SW6.0 kmh SW -- 29.82 in1009.8 mb 0.00 in0.0 mm 0.00 in0.0 mm 0.06 in1.5 mm
09:34 AM 58.8°F14.9°C 47.5°F8.6°C 71% 3.8 mph SW6.1 kmh SW 10.5 mph16.9 kmh 29.82 in1009.8 mb 0.00 in0.0 mm 0.00 in0.0 mm 0.06 in1.5 mm
09:13 AM 57.9°F14.4°C 46.6°F8.1°C 71% 3.1 mph SW5.0 kmh SW 9.4 mph15.1 kmh 29.81 in1009.5 mb 0.00 in0.0 mm 0.00 in0.0 mm 0.06 in1.5 mm
09:00 AM 57.4°F14.1°C 46.0°F7.8°C 71% 3.8 mph SW6.1 kmh SW 10.5 mph16.9 kmh 29.82 in1009.8 mb 0.00 in0.0 mm 0.00 in0.0 mm 0.06 in1.5 mm
08:39 AM 57.0°F13.9°C 45.7°F7.6°C 71% 3.7 mph SW6.0 kmh SW -- 29.81 in1009.5 mb 0.00 in0.0 mm 0.00 in0.0 mm 0.06 in1.5 mm
08:19 AM 56.8°F13.8°C 45.5°F7.5°C 71% 5.6 mph SW9.0 kmh SW 15.4 mph24.8 kmh 29.80 in1009.1 mb 0.00 in0.0 mm 0.00 in0.0 mm 0.06 in1.5 mm
08:03 AM 56.5°F13.6°C 45.1°F7.3°C 71% 4.9 mph SW7.9 kmh SW 11.2 mph18.0 kmh 29.79 in1008.8 mb 0.00 in0.0 mm 0.00 in0.0 mm 0.06 in1.5 mm
07:42 AM 55.9°F13.3°C 44.6°F7.0°C 71% 3.7 mph SW6.0 kmh SW -- 29.79 in1008.8 mb 0.00 in0.0 mm 0.00 in0.0 mm 0.06 in1.5 mm
07:22 AM 55.8°F13.2°C 44.4°F6.9°C 71% 3.8 mph SW6.1 kmh SW 11.2 mph18.0 kmh 29.78 in1008.5 mb 0.00 in0.0 mm 0.00 in0.0 mm 0.06 in1.5 mm
07:02 AM 55.4°F13.0°C 43.7°F6.5°C 70% 4.3 mph SW6.9 kmh SW 9.8 mph15.8 kmh 29.78 in1008.5 mb 0.00 in0.0 mm 0.00 in0.0 mm 0.06 in1.5 mm
06:42 AM 54.9°F12.7°C 43.2°F6.2°C 70% 5.0 mph SSW8.0 kmh SSW -- 29.78 in1008.5 mb 0.00 in0.0 mm 0.00 in0.0 mm 0.06 in1.5 mm
06:23 AM 54.5°F12.5°C 42.4°F5.8°C 69% 4.9 mph SW7.9 kmh SW 18.6 mph29.9 kmh 29.78 in1008.5 mb 0.01 in0.3 mm 0.00 in0.0 mm 0.06 in1.5 mm
05:54 AM 53.8°F12.1°C 41.7°F5.4°C 69% 4.3 mph SSW6.9 kmh SSW 10.5 mph16.9 kmh 29.79 in1008.8 mb 0.02 in0.5 mm 0.00 in0.0 mm 0.06 in1.5 mm
05:51 AM 53.6°F12.0°C 41.2°F5.1°C 68% 3.7 mph SSW6.0 kmh SSW -- 29.78 in1008.5 mb 0.06 in1.5 mm 0.00 in0.0 mm 0.06 in1.5 mm
05:36 AM 53.6°F12.0°C 41.2°F5.1°C 68% 3.8 mph SSW6.1 kmh SSW 8.7 mph14.0 kmh 29.78 in1008.5 mb 0.06 in1.5 mm 0.01 in0.3 mm 0.06 in1.5 mm
05:17 AM 53.6°F12.0°C 40.8°F4.9°C 67% 3.8 mph SSW6.1 kmh SSW 9.4 mph15.1 kmh 29.78 in1008.5 mb 0.05 in1.3 mm 0.03 in0.8 mm 0.05 in1.3 mm
04:56 AM 54.3°F12.4°C 41.2°F5.1°C 66% 4.3 mph SW6.9 kmh SW 13.6 mph21.9 kmh 29.78 in1008.5 mb 0.03 in0.8 mm 0.38 in9.7 mm 0.03 in0.8 mm
04:51 AM 54.9°F12.7°C 41.7°F5.4°C 66% 5.6 mph SW9.0 kmh SW -- 29.79 in1008.8 mb 0.00 in0.0 mm 0.00 in0.0 mm 0.00 in0.0 mm
04:35 AM 54.9°F12.7°C 41.7°F5.4°C 66% 5.6 mph SW9.0 kmh SW 17.4 mph28.0 kmh 29.79 in1008.8 mb 0.00 in0.0 mm 0.00 in0.0 mm 0.00 in0.0 mm
04:20 AM 54.7°F12.6°C 41.0°F5.0°C 65% 3.8 mph SW6.1 kmh SW 9.8 mph15.8 kmh 29.78 in1008.5 mb 0.00 in0.0 mm 0.00 in0.0 mm 0.00 in0.0 mm
04:00 AM 54.5°F12.5°C 41.0°F5.0°C 65% 3.1 mph S5.0 kmh S 8.7 mph14.0 kmh 29.78 in1008.5 mb 0.00 in0.0 mm 0.00 in0.0 mm 0.00 in0.0 mm
03:40 AM 54.3°F12.4°C 40.8°F4.9°C 65% 4.3 mph S6.9 kmh S -- 29.79 in1008.8 mb 0.00 in0.0 mm 0.00 in0.0 mm 0.00 in0.0 mm
03:20 AM 53.8°F12.1°C 40.3°F4.6°C 65% 3.8 mph SSW6.1 kmh SSW 8.7 mph14.0 kmh 29.80 in1009.1 mb 0.00 in0.0 mm 0.00 in0.0 mm 0.00 in0.0 mm
02:59 AM 53.1°F11.7°C 39.6°F4.2°C 65% 4.3 mph S6.9 kmh S 12.5 mph20.1 kmh 29.81 in1009.5 mb 0.00 in0.0 mm 0.00 in0.0 mm 0.00 in0.0 mm
02:40 AM 52.0°F11.1°C 38.5°F3.6°C 65% 2.5 mph S4.0 kmh S -- 29.81 in1009.5 mb 0.00 in0.0 mm 0.00 in0.0 mm 0.00 in0.0 mm
02:19 AM 51.8°F11.0°C 38.3°F3.5°C 65% 2.5 mph S4.0 kmh S 5.6 mph9.0 kmh 29.82 in1009.8 mb 0.00 in0.0 mm 0.00 in0.0 mm 0.00 in0.0 mm
01:59 AM 52.0°F11.1°C 38.5°F3.6°C 65% 3.1 mph S5.0 kmh S 6.9 mph11.1 kmh 29.83 in1010.2 mb 0.00 in0.0 mm 0.00 in0.0 mm 0.00 in0.0 mm
01:39 AM 52.2°F11.2°C 38.7°F3.7°C 65% 3.1 mph S5.0 kmh S -- 29.85 in1010.8 mb 0.00 in0.0 mm 0.00 in0.0 mm 0.00 in0.0 mm
01:19 AM 52.3°F11.3°C 38.8°F3.8°C 65% 1.8 mph S2.9 kmh S 4.9 mph7.9 kmh 29.86 in1011.2 mb 0.00 in0.0 mm 0.00 in0.0 mm 0.00 in0.0 mm
12:59 AM 52.5°F11.4°C 39.0°F3.9°C 65% 2.5 mph S4.0 kmh S 4.9 mph7.9 kmh 29.87 in1011.5 mb 0.00 in0.0 mm 0.00 in0.0 mm 0.00 in0.0 mm
12:51 AM 52.3°F11.3°C 38.8°F3.8°C 65% 2.5 mph SSW4.0 kmh SSW -- 29.87 in1011.5 mb 0.00 in0.0 mm 0.00 in0.0 mm 0.00 in0.0 mm
12:36 AM 52.3°F11.3°C 38.8°F3.8°C 65% 2.5 mph SSW4.0 kmh SSW 7.4 mph11.9 kmh 29.87 in1011.5 mb 0.00 in0.0 mm 0.00 in0.0 mm 0.00 in0.0 mm
12:16 AM 52.5°F11.4°C 38.7°F3.7°C 64% 2.5 mph S4.0 kmh S 4.9 mph7.9 kmh 29.88 in1011.9 mb 0.00 in0.0 mm 0.00 in0.0 mm 0.00 in0.0 mm